createdAt,value
2017-10-20T00:00:05.235Z,58.03
2017-10-20T00:02:32.561Z,60.13
2017-10-20T00:04:59.945Z,58.20
2017-10-20T00:07:28.243Z,56.17
2017-10-20T00:09:55.614Z,54.37
2017-10-20T00:12:22.917Z,54.47
2017-10-20T00:14:50.240Z,53.57
2017-10-20T00:17:17.569Z,54.27
2017-10-20T00:19:44.925Z,53.00
2017-10-20T00:22:12.588Z,54.30
2017-10-20T00:24:39.921Z,52.57
2017-10-20T00:27:07.251Z,52.00
2017-10-20T00:29:34.565Z,50.87
2017-10-20T00:32:01.930Z,51.77
2017-10-20T00:34:29.246Z,52.90
2017-10-20T00:36:56.569Z,49.40
2017-10-20T00:39:23.950Z,50.10
2017-10-20T00:41:51.302Z,49.50
2017-10-20T00:44:18.621Z,50.87
2017-10-20T00:46:45.952Z,49.67
2017-10-20T00:49:13.283Z,50.47
2017-10-20T00:51:40.626Z,52.10
2017-10-20T00:54:07.950Z,52.37
2017-10-20T00:56:35.262Z,52.07
2017-10-20T00:59:02.590Z,49.50
2017-10-20T01:01:29.971Z,47.70
2017-10-20T01:03:57.325Z,47.57
2017-10-20T01:06:25.630Z,48.50
2017-10-20T01:08:52.975Z,47.60
2017-10-20T01:11:20.294Z,47.93
2017-10-20T01:13:47.966Z,46.90
2017-10-20T01:16:15.304Z,48.27
2017-10-20T01:18:42.663Z,47.90
2017-10-20T01:21:09.959Z,48.43
2017-10-20T01:23:37.306Z,48.30
2017-10-20T01:26:04.657Z,43.83
2017-10-20T01:28:31.981Z,45.87
2017-10-20T01:30:59.302Z,44.87
2017-10-20T01:33:26.630Z,42.33
2017-10-20T01:35:54.048Z,44.60
2017-10-20T01:38:21.371Z,46.93
2017-10-20T01:40:48.676Z,45.23
2017-10-20T01:43:15.993Z,44.70
2017-10-20T01:45:43.321Z,45.47
2017-10-20T01:48:10.633Z,45.53
2017-10-20T01:50:37.950Z,44.70
2017-10-20T01:53:05.257Z,44.63
2017-10-20T01:55:32.624Z,42.50
2017-10-20T01:57:59.964Z,41.90
2017-10-20T02:00:27.289Z,43.17
2017-10-20T02:02:54.882Z,42.83
2017-10-20T02:05:22.365Z,41.70
2017-10-20T02:07:49.668Z,43.70
2017-10-20T02:10:17.334Z,44.33
2017-10-20T02:12:44.635Z,46.57
2017-10-20T02:15:11.980Z,44.80
2017-10-20T02:17:39.309Z,45.90
2017-10-20T02:20:06.622Z,43.07
2017-10-20T02:22:33.998Z,44.33
2017-10-20T02:25:01.319Z,41.17
2017-10-20T02:27:28.623Z,41.03
2017-10-20T02:29:55.962Z,41.37
2017-10-20T02:32:23.290Z,40.10
2017-10-20T02:34:50.606Z,39.93
2017-10-20T02:37:17.920Z,38.37
2017-10-20T02:39:45.220Z,41.87
2017-10-20T02:42:12.541Z,40.73
2017-10-20T02:44:39.872Z,39.60
2017-10-20T02:47:07.232Z,39.67
2017-10-20T02:49:34.529Z,38.50
2017-10-20T02:52:01.868Z,37.60
2017-10-20T02:54:29.197Z,38.37
2017-10-20T02:56:56.553Z,41.67
2017-10-20T02:59:23.898Z,37.77
2017-10-20T03:01:51.213Z,39.77
2017-10-20T03:04:18.538Z,40.03
2017-10-20T03:06:45.849Z,38.70
2017-10-20T03:09:13.171Z,39.83
2017-10-20T03:11:41.468Z,39.57
2017-10-20T03:14:08.839Z,39.87
2017-10-20T03:16:36.137Z,38.33
2017-10-20T03:19:03.457Z,39.90
2017-10-20T03:21:30.776Z,38.30
2017-10-20T03:23:58.096Z,38.60
2017-10-20T03:26:25.399Z,38.90
2017-10-20T03:28:52.733Z,39.67
2017-10-20T03:31:20.032Z,38.70
2017-10-20T03:33:47.377Z,40.53
2017-10-20T03:36:14.669Z,36.40
2017-10-20T03:38:42.005Z,37.30
2017-10-20T03:41:09.314Z,36.50
2017-10-20T03:43:36.630Z,38.27
2017-10-20T03:46:03.965Z,37.63
2017-10-20T03:48:31.256Z,36.27
2017-10-20T03:50:59.500Z,37.63
2017-10-20T03:53:27.772Z,36.90
2017-10-20T03:55:55.120Z,35.40
2017-10-20T03:58:22.432Z,34.40
2017-10-20T04:00:49.774Z,36.67
2017-10-20T04:03:17.118Z,38.13
2017-10-20T04:05:45.353Z,36.30
2017-10-20T04:08:12.683Z,35.93
2017-10-20T04:10:40.006Z,35.83
2017-10-20T04:13:07.304Z,35.30
2017-10-20T04:15:34.629Z,36.13
2017-10-20T04:18:01.960Z,34.90
2017-10-20T04:20:29.285Z,36.33
2017-10-20T04:22:56.588Z,38.30
2017-10-20T04:25:23.906Z,34.87
2017-10-20T04:27:51.205Z,34.27
2017-10-20T04:30:18.519Z,35.70
2017-10-20T04:32:45.874Z,35.57
2017-10-20T04:35:13.177Z,36.23
2017-10-20T04:37:40.509Z,35.80
2017-10-20T04:40:07.809Z,35.13
2017-10-20T04:42:35.147Z,34.77
2017-10-20T04:45:03.260Z,33.00
2017-10-20T04:47:30.609Z,33.87
2017-10-20T04:49:57.918Z,33.60
2017-10-20T04:52:25.246Z,33.37
2017-10-20T04:54:52.558Z,32.30
2017-10-20T04:57:19.906Z,32.57
2017-10-20T04:59:47.234Z,32.57
2017-10-20T05:02:15.449Z,33.50
2017-10-20T05:04:42.937Z,31.37
2017-10-20T05:07:10.247Z,34.03
2017-10-20T05:09:37.573Z,34.20
2017-10-20T05:12:04.897Z,33.00
2017-10-20T05:14:32.237Z,32.40
2017-10-20T05:16:59.771Z,33.63
2017-10-20T05:19:27.128Z,34.60
2017-10-20T05:21:54.516Z,35.13
2017-10-20T05:24:21.833Z,36.10
2017-10-20T05:26:49.136Z,35.50
2017-10-20T05:29:16.469Z,35.37
2017-10-20T05:31:43.773Z,35.77
2017-10-20T05:34:11.134Z,34.90
2017-10-20T05:36:38.429Z,35.57
2017-10-20T05:39:05.764Z,34.23
2017-10-20T05:41:33.086Z,35.27
2017-10-20T05:44:00.392Z,34.63
2017-10-20T05:46:27.750Z,34.60
2017-10-20T05:48:55.227Z,34.13
2017-10-20T05:51:22.625Z,33.50
2017-10-20T05:53:49.941Z,35.00
2017-10-20T05:56:17.256Z,33.33
2017-10-20T05:58:44.556Z,34.00
2017-10-20T06:01:11.884Z,33.60
2017-10-20T06:03:39.192Z,34.17
2017-10-20T06:06:06.533Z,34.67
2017-10-20T06:08:33.857Z,32.70
2017-10-20T06:11:01.157Z,34.00
2017-10-20T06:13:28.475Z,32.83
2017-10-20T06:15:55.790Z,33.27
2017-10-20T06:18:23.175Z,32.30
2017-10-20T06:20:50.474Z,31.73
2017-10-20T06:23:17.821Z,33.00
2017-10-20T06:25:45.171Z,33.43
2017-10-20T06:28:12.553Z,32.90
2017-10-20T06:30:40.889Z,34.03
2017-10-20T06:33:08.222Z,33.93
2017-10-20T06:35:35.535Z,33.47
2017-10-20T06:38:02.848Z,32.90
2017-10-20T06:40:30.161Z,32.90
2017-10-20T06:42:57.479Z,32.00
2017-10-20T06:45:24.798Z,32.07
2017-10-20T06:47:52.140Z,32.47
2017-10-20T06:50:19.679Z,31.17
2017-10-20T06:52:46.993Z,32.60
2017-10-20T06:55:14.628Z,30.90
2017-10-20T06:57:41.942Z,31.33
2017-10-20T07:00:09.281Z,32.47
2017-10-20T07:02:36.684Z,33.07
2017-10-20T07:05:04.006Z,30.67
2017-10-20T07:07:31.313Z,32.17
2017-10-20T07:09:58.648Z,30.13
2017-10-20T07:12:25.959Z,30.93
2017-10-20T07:14:53.284Z,31.10
2017-10-20T07:17:20.643Z,32.40
2017-10-20T07:19:49.978Z,30.77
2017-10-20T07:22:17.297Z,30.37
2017-10-20T07:24:44.694Z,30.53
2017-10-20T07:27:12.026Z,32.10
2017-10-20T07:29:39.368Z,32.30
2017-10-20T07:32:06.717Z,30.47
2017-10-20T07:34:34.003Z,30.17
2017-10-20T07:37:01.361Z,28.77
2017-10-20T07:39:28.669Z,29.40
2017-10-20T07:41:56.001Z,29.73
2017-10-20T07:44:23.353Z,30.20
2017-10-20T07:46:50.681Z,30.60
2017-10-20T07:49:17.985Z,30.97
2017-10-20T07:51:45.310Z,29.80
2017-10-20T07:54:12.622Z,29.57
2017-10-20T07:56:40.113Z,27.50
2017-10-20T07:59:07.425Z,30.73
2017-10-20T08:01:34.737Z,31.47
2017-10-20T08:04:02.041Z,30.40
2017-10-20T08:06:29.373Z,29.77
2017-10-20T08:08:56.693Z,29.27
2017-10-20T08:11:24.069Z,29.20
2017-10-20T08:13:51.360Z,28.27
2017-10-20T08:16:18.656Z,27.57
2017-10-20T08:18:46.006Z,28.40
2017-10-20T08:21:13.368Z,29.30
2017-10-20T08:23:40.745Z,28.03
2017-10-20T08:26:08.054Z,30.63
2017-10-20T08:28:35.393Z,29.43
2017-10-20T08:31:02.702Z,29.13
2017-10-20T08:33:30.065Z,28.60
2017-10-20T08:35:57.422Z,28.80
2017-10-20T08:38:24.777Z,28.00
2017-10-20T08:40:52.080Z,28.03
2017-10-20T08:43:19.422Z,27.60
2017-10-20T08:45:46.718Z,26.67
2017-10-20T08:48:14.102Z,27.17
2017-10-20T08:50:41.409Z,27.80
2017-10-20T08:53:08.753Z,25.53
2017-10-20T08:55:36.057Z,25.83
2017-10-20T08:58:03.367Z,24.87
2017-10-20T09:00:30.706Z,25.23
2017-10-20T09:02:58.152Z,25.37
2017-10-20T09:05:25.476Z,26.00
2017-10-20T09:07:52.771Z,26.97
2017-10-20T09:10:20.094Z,25.50
2017-10-20T09:12:47.412Z,26.83
2017-10-20T09:15:15.822Z,25.63
2017-10-20T09:17:43.125Z,26.07
2017-10-20T09:20:10.467Z,26.07
2017-10-20T09:22:37.764Z,24.77
2017-10-20T09:25:05.139Z,25.17
2017-10-20T09:27:32.454Z,24.27
2017-10-20T09:30:00.682Z,24.60
2017-10-20T09:32:28.036Z,24.50
2017-10-20T09:34:55.345Z,23.00
2017-10-20T09:37:22.669Z,24.20
2017-10-20T09:39:50.132Z,22.50
2017-10-20T09:42:17.460Z,22.80
2017-10-20T09:44:44.780Z,23.60
2017-10-20T09:47:12.098Z,22.47
2017-10-20T09:49:39.398Z,21.77
2017-10-20T09:52:06.775Z,23.73
2017-10-20T09:54:34.076Z,23.10
2017-10-20T09:57:01.404Z,22.70
2017-10-20T09:59:28.885Z,21.50
2017-10-20T10:01:57.614Z,22.50
2017-10-20T10:04:24.916Z,22.10
2017-10-20T10:06:52.239Z,21.97
2017-10-20T10:09:19.578Z,21.20
2017-10-20T10:11:46.964Z,21.70
2017-10-20T10:14:17.684Z,21.27
2017-10-20T10:16:45.108Z,20.93
2017-10-20T10:19:12.431Z,19.90
2017-10-20T10:21:39.765Z,21.00
2017-10-20T10:24:07.104Z,20.83
2017-10-20T10:26:34.540Z,20.37
2017-10-20T10:29:01.882Z,20.50
2017-10-20T10:31:29.184Z,21.20
2017-10-20T10:33:56.513Z,21.50
2017-10-20T10:36:25.771Z,20.17
2017-10-20T10:38:53.148Z,20.63
2017-10-20T10:41:21.966Z,20.70
2017-10-20T10:43:49.316Z,21.17
2017-10-20T10:46:16.623Z,20.87
2017-10-20T10:48:43.965Z,21.50
2017-10-20T10:51:11.293Z,20.60
2017-10-20T10:53:38.627Z,19.80
2017-10-20T10:56:06.081Z,20.70
2017-10-20T10:58:33.388Z,20.60
2017-10-20T11:01:02.683Z,20.27
2017-10-20T11:03:30.016Z,20.50
2017-10-20T11:06:03.335Z,20.00
2017-10-20T11:08:36.406Z,21.20
2017-10-20T11:11:09.648Z,20.13
2017-10-20T11:13:37.108Z,19.73
2017-10-20T11:16:04.437Z,19.30
2017-10-20T11:18:31.737Z,20.40
2017-10-20T11:20:59.077Z,19.23
2017-10-20T11:23:26.380Z,19.83
2017-10-20T11:25:54.757Z,20.10
2017-10-20T11:28:22.076Z,19.23
2017-10-20T11:30:49.617Z,20.10
2017-10-20T11:33:16.937Z,19.13
2017-10-20T11:35:46.488Z,18.07
2017-10-20T11:38:14.022Z,19.50
2017-10-20T11:40:41.375Z,19.00
2017-10-20T11:43:08.696Z,20.17
2017-10-20T11:45:36.053Z,18.60
2017-10-20T11:48:03.474Z,19.80
2017-10-20T11:50:32.529Z,20.13
2017-10-20T11:52:59.845Z,20.23
2017-10-20T11:55:27.219Z,20.53
2017-10-20T11:57:55.947Z,19.73
2017-10-20T12:00:23.310Z,19.73
2017-10-20T12:02:50.645Z,20.00
2017-10-20T12:05:18.142Z,20.10
2017-10-20T12:07:45.525Z,19.33
2017-10-20T12:10:12.859Z,19.90
2017-10-20T12:12:40.190Z,19.80
2017-10-20T12:15:07.484Z,19.40
2017-10-20T12:17:34.838Z,19.57
2017-10-20T12:20:02.200Z,20.50
2017-10-20T12:22:30.016Z,20.60
2017-10-20T12:24:57.377Z,20.90
2017-10-20T12:27:25.024Z,20.00
2017-10-20T12:29:52.484Z,19.20
2017-10-20T12:32:19.793Z,20.20
2017-10-20T12:34:48.917Z,19.43
2017-10-20T12:37:16.345Z,20.03
2017-10-20T12:39:43.913Z,20.00
2017-10-20T12:42:11.257Z,20.23
2017-10-20T12:44:38.581Z,20.00
2017-10-20T12:47:05.989Z,20.27
2017-10-20T12:49:33.487Z,19.77
2017-10-20T12:52:00.825Z,19.53
2017-10-20T12:54:28.401Z,20.57
2017-10-20T12:56:55.808Z,19.00
2017-10-20T12:59:23.161Z,19.17
2017-10-20T13:01:52.020Z,19.50
2017-10-20T13:04:19.370Z,19.80
2017-10-20T13:06:46.774Z,20.20
2017-10-20T13:09:14.315Z,20.70
2017-10-20T13:11:41.660Z,20.80
2017-10-20T13:14:08.952Z,20.23
2017-10-20T13:16:36.280Z,20.20
2017-10-20T13:19:03.584Z,20.73
2017-10-20T13:21:31.018Z,21.13
2017-10-20T13:23:58.349Z,20.23
2017-10-20T13:26:25.740Z,21.50
2017-10-20T13:28:53.261Z,21.10
2017-10-20T13:31:20.738Z,20.90
2017-10-20T13:33:48.046Z,20.30
2017-10-20T13:36:15.360Z,20.17
2017-10-20T13:38:44.299Z,19.40
2017-10-20T13:41:11.614Z,21.00
2017-10-20T13:43:38.956Z,21.30
2017-10-20T13:46:06.301Z,20.87
2017-10-20T13:48:34.849Z,21.03
2017-10-20T13:51:02.222Z,21.07
2017-10-20T13:53:29.587Z,20.50
2017-10-20T13:55:56.920Z,21.70
2017-10-20T13:58:24.223Z,21.63
2017-10-20T14:00:51.540Z,21.23
2017-10-20T14:03:18.863Z,21.70
2017-10-20T14:05:46.175Z,20.20
2017-10-20T14:08:13.499Z,20.93
2017-10-20T14:10:40.964Z,20.10
2017-10-20T14:13:08.300Z,21.30
2017-10-20T14:15:35.602Z,20.70
2017-10-20T14:18:04.316Z,20.57
2017-10-20T14:20:31.662Z,20.00
2017-10-20T14:22:59.991Z,20.50
2017-10-20T14:25:29.085Z,20.80
2017-10-20T14:27:56.440Z,19.70
2017-10-20T14:30:23.873Z,21.33
2017-10-20T14:32:52.525Z,21.10
2017-10-20T14:35:19.972Z,22.80
2017-10-20T14:37:47.349Z,21.30
2017-10-20T14:40:14.791Z,21.63
2017-10-20T14:42:44.880Z,22.20
2017-10-20T14:45:12.367Z,22.20
2017-10-20T14:47:42.966Z,21.43
2017-10-20T14:50:10.288Z,22.07
2017-10-20T14:52:38.478Z,23.00
2017-10-20T14:55:05.897Z,23.33
2017-10-20T14:57:33.303Z,22.53
2017-10-20T15:00:00.641Z,22.67
2017-10-20T15:02:28.278Z,25.30
2017-10-20T15:04:55.740Z,24.37
2017-10-20T15:07:23.082Z,24.37
2017-10-20T15:09:50.516Z,24.17
2017-10-20T15:12:17.906Z,26.90
2017-10-20T15:14:45.400Z,28.60
2017-10-20T15:17:13.027Z,28.00
2017-10-20T15:19:40.362Z,28.20
2017-10-20T15:22:07.706Z,26.70
2017-10-20T15:24:35.115Z,27.43
2017-10-20T15:27:03.237Z,25.93
2017-10-20T15:29:31.771Z,25.53
2017-10-20T15:31:59.185Z,25.13
2017-10-20T15:34:26.492Z,26.37
2017-10-20T15:36:54.109Z,24.70
2017-10-20T15:39:23.229Z,24.67
2017-10-20T15:41:50.626Z,24.90
2017-10-20T15:44:17.997Z,23.47
2017-10-20T15:46:45.448Z,25.70
2017-10-20T15:49:12.813Z,25.10
2017-10-20T15:51:41.438Z,25.30
2017-10-20T15:54:08.801Z,26.97
2017-10-20T15:56:36.100Z,27.13
2017-10-20T15:59:03.453Z,28.77
2017-10-20T16:01:30.848Z,27.43
2017-10-20T16:03:58.198Z,27.67
2017-10-20T16:06:25.795Z,26.37
2017-10-20T16:08:53.197Z,26.13
2017-10-20T16:11:20.495Z,27.33
2017-10-20T16:13:47.884Z,26.57
2017-10-20T16:16:15.178Z,27.20
2017-10-20T16:18:42.496Z,26.40
2017-10-20T16:21:09.805Z,28.63
2017-10-20T16:23:37.147Z,29.20
2017-10-20T16:26:04.485Z,31.37
2017-10-20T16:28:31.801Z,27.40
2017-10-20T16:30:59.140Z,27.17
2017-10-20T16:33:26.435Z,27.70
2017-10-20T16:35:53.786Z,28.73
2017-10-20T16:38:21.148Z,31.53
2017-10-20T16:40:48.465Z,33.67
2017-10-20T16:43:15.769Z,29.40
2017-10-20T16:45:43.139Z,27.77
2017-10-20T16:48:10.450Z,27.13
2017-10-20T16:50:37.785Z,27.07
2017-10-20T16:53:05.140Z,27.67
2017-10-20T16:55:32.468Z,28.20
2017-10-20T16:57:59.792Z,27.10
2017-10-20T17:00:27.132Z,25.60
2017-10-20T17:02:54.461Z,26.87
2017-10-20T17:05:21.805Z,28.40
2017-10-20T17:07:49.119Z,26.33
2017-10-20T17:10:16.422Z,25.13
2017-10-20T17:12:43.735Z,28.03
2017-10-20T17:15:11.049Z,25.47
2017-10-20T17:17:38.433Z,26.90
2017-10-20T17:20:05.753Z,34.67
2017-10-20T17:22:33.168Z,33.17
2017-10-20T17:25:00.467Z,39.97
2017-10-20T17:27:27.788Z,29.93
2017-10-20T17:29:56.283Z,26.23
2017-10-20T17:32:23.680Z,28.43
2017-10-20T17:34:50.977Z,29.40
2017-10-20T17:37:18.302Z,27.63
2017-10-20T17:39:45.612Z,27.90
2017-10-20T17:42:12.932Z,29.90
2017-10-20T17:44:40.253Z,27.93
2017-10-20T17:47:07.559Z,33.67
2017-10-20T17:49:35.188Z,33.60
2017-10-20T17:52:02.516Z,29.20
2017-10-20T17:54:29.988Z,30.60
2017-10-20T17:56:57.292Z,28.50
2017-10-20T17:59:24.641Z,26.40
2017-10-20T18:01:51.941Z,26.57
2017-10-20T18:04:19.269Z,27.00
2017-10-20T18:06:46.568Z,27.13
2017-10-20T18:09:13.922Z,26.90
2017-10-20T18:11:41.233Z,26.23
2017-10-20T18:14:08.535Z,27.53
2017-10-20T18:16:35.843Z,28.20
2017-10-20T18:19:03.153Z,28.43
2017-10-20T18:21:30.474Z,30.67
2017-10-20T18:23:57.804Z,29.67
2017-10-20T18:26:25.433Z,27.60
2017-10-20T18:28:52.756Z,27.50
2017-10-20T18:31:20.898Z,26.30
2017-10-20T18:33:48.209Z,28.10
2017-10-20T18:36:15.816Z,27.60
2017-10-20T18:38:43.178Z,26.00
2017-10-20T18:41:10.544Z,27.30
2017-10-20T18:43:37.832Z,29.30
2017-10-20T18:46:05.484Z,28.00
2017-10-20T18:48:32.784Z,30.13
2017-10-20T18:51:00.093Z,30.20
2017-10-20T18:53:27.422Z,33.77
2017-10-20T18:55:54.741Z,37.27
2017-10-20T18:58:22.058Z,38.53
2017-10-20T19:00:49.392Z,36.40
2017-10-20T19:03:16.860Z,37.07
2017-10-20T19:05:44.161Z,37.80
2017-10-20T19:08:11.491Z,36.23
2017-10-20T19:10:38.966Z,37.33
2017-10-20T19:13:06.290Z,38.13
2017-10-20T19:15:33.594Z,37.80
2017-10-20T19:18:00.917Z,34.13
2017-10-20T19:20:28.228Z,37.80
2017-10-20T19:22:55.557Z,36.37
2017-10-20T19:25:22.870Z,34.37
2017-10-20T19:27:50.167Z,29.70
2017-10-20T19:30:17.513Z,38.17
2017-10-20T19:32:44.816Z,31.70
2017-10-20T19:35:12.144Z,32.60
2017-10-20T19:37:39.454Z,31.43
2017-10-20T19:40:06.784Z,34.10
2017-10-20T19:42:34.089Z,32.50
2017-10-20T19:45:01.424Z,34.37
2017-10-20T19:47:28.724Z,35.67
2017-10-20T19:49:56.084Z,36.90
2017-10-20T19:52:23.429Z,35.77
2017-10-20T19:54:50.940Z,37.20
2017-10-20T19:57:18.299Z,36.77
2017-10-20T19:59:45.596Z,31.20
2017-10-20T20:02:12.910Z,32.90
2017-10-20T20:04:40.222Z,33.33
2017-10-20T20:07:07.544Z,29.07
2017-10-20T20:09:34.849Z,31.63
2017-10-20T20:12:02.211Z,28.67
2017-10-20T20:14:29.546Z,25.70
2017-10-20T20:16:56.855Z,26.37
2017-10-20T20:19:24.192Z,25.20
2017-10-20T20:21:51.518Z,25.17
2017-10-20T20:24:18.825Z,28.80
2017-10-20T20:26:46.153Z,28.10
2017-10-20T20:29:13.479Z,25.73
2017-10-20T20:31:40.781Z,27.60
2017-10-20T20:34:22.981Z,27.07
2017-10-20T20:36:50.313Z,26.87
2017-10-20T20:39:17.617Z,27.53
2017-10-20T20:41:44.972Z,25.67
2017-10-20T20:44:12.338Z,25.50
2017-10-20T20:46:39.648Z,24.03
2017-10-20T20:49:06.978Z,25.00
2017-10-20T20:51:34.274Z,23.23
2017-10-20T20:54:01.611Z,23.87
2017-10-20T20:56:28.950Z,24.43
2017-10-20T20:58:56.284Z,22.87
2017-10-20T21:01:23.592Z,22.97
2017-10-20T21:03:50.904Z,22.30
2017-10-20T21:06:18.235Z,22.30
2017-10-20T21:08:45.745Z,20.70
2017-10-20T21:11:13.033Z,19.90
2017-10-20T21:13:40.361Z,22.07
2017-10-20T21:16:07.656Z,20.83
2017-10-20T21:18:34.988Z,20.13
2017-10-20T21:21:02.293Z,20.23
2017-10-20T21:23:29.621Z,20.70
2017-10-20T21:25:56.929Z,20.30
2017-10-20T21:28:24.252Z,20.63
2017-10-20T21:30:51.574Z,20.87
2017-10-20T21:33:18.888Z,19.47
2017-10-20T21:35:46.216Z,20.80
2017-10-20T21:38:13.526Z,22.27
2017-10-20T21:40:40.837Z,20.70
2017-10-20T21:43:08.161Z,20.40
2017-10-20T21:45:35.533Z,21.57
2017-10-20T21:48:02.827Z,22.07
2017-10-20T21:50:30.182Z,21.03
2017-10-20T21:52:57.489Z,22.90
2017-10-20T21:55:24.812Z,22.40
2017-10-20T21:57:52.112Z,21.93
2017-10-20T22:00:19.503Z,22.40
2017-10-20T22:02:46.817Z,23.40
2017-10-20T22:05:14.173Z,25.47
2017-10-20T22:07:41.509Z,33.63
2017-10-20T22:10:08.827Z,40.20
2017-10-20T22:12:36.964Z,41.97
2017-10-20T22:15:04.282Z,34.83
2017-10-20T22:17:31.602Z,31.77
2017-10-20T22:19:58.916Z,26.97
2017-10-20T22:22:26.243Z,26.30
2017-10-20T22:24:53.567Z,24.60
2017-10-20T22:27:20.885Z,24.47
2017-10-20T22:29:48.180Z,22.17
2017-10-20T22:32:15.492Z,21.77
2017-10-20T22:34:42.799Z,21.50
2017-10-20T22:37:10.150Z,23.13
2017-10-20T22:39:37.454Z,22.50
2017-10-20T22:42:05.680Z,22.10
2017-10-20T22:44:33.026Z,21.87
2017-10-20T22:47:00.328Z,22.40
2017-10-20T22:49:27.660Z,22.37
2017-10-20T22:51:54.971Z,22.27
2017-10-20T22:54:22.297Z,21.13
2017-10-20T22:56:49.783Z,20.63
2017-10-20T22:59:17.138Z,20.90
2017-10-20T23:01:44.438Z,20.17
2017-10-20T23:04:12.268Z,18.97
2017-10-20T23:06:39.568Z,19.53
2017-10-20T23:09:06.928Z,17.40
2017-10-20T23:11:34.236Z,18.10
2017-10-20T23:14:01.592Z,16.83
2017-10-20T23:16:28.953Z,16.30
2017-10-20T23:18:56.300Z,17.60
2017-10-20T23:21:23.596Z,15.93
2017-10-20T23:23:51.229Z,16.80
2017-10-20T23:26:18.538Z,15.90
2017-10-20T23:28:46.465Z,16.60
2017-10-20T23:31:13.785Z,15.97
2017-10-20T23:33:41.130Z,16.20
2017-10-20T23:36:08.490Z,15.90
2017-10-20T23:38:35.804Z,15.10
2017-10-20T23:41:04.284Z,15.20
2017-10-20T23:43:31.608Z,16.40
2017-10-20T23:45:58.948Z,15.50
2017-10-20T23:48:26.248Z,16.03
2017-10-20T23:50:53.577Z,15.00
2017-10-20T23:53:20.881Z,16.07
2017-10-20T23:55:49.126Z,15.33
2017-10-20T23:58:16.439Z,15.97
